createdAt,value
2023-04-12T03:59:48.998Z,4.22
2023-04-12T04:02:53.977Z,4.32
2023-04-12T04:05:57.009Z,4.70
2023-04-12T04:08:59.807Z,4.32
2023-04-12T04:12:02.529Z,4.45
2023-04-12T04:15:05.617Z,3.72
2023-04-12T04:18:08.775Z,3.80
2023-04-12T04:21:14.198Z,3.62
2023-04-12T04:24:18.791Z,3.60
2023-04-12T04:27:22.109Z,3.92
2023-04-12T04:30:25.141Z,2.92
2023-04-12T04:33:27.719Z,3.60
2023-04-12T04:36:34.040Z,2.97
2023-04-12T04:39:36.196Z,3.53
2023-04-12T04:42:39.792Z,3.72
2023-04-12T04:45:42.852Z,3.87
2023-04-12T04:48:45.732Z,3.50
2023-04-12T04:51:47.959Z,3.67
2023-04-12T04:54:50.606Z,3.28
2023-04-12T04:57:54.240Z,3.58
2023-04-12T05:00:57.660Z,3.05
2023-04-12T05:04:00.730Z,2.50
2023-04-12T05:07:03.351Z,2.75
2023-04-12T05:10:06.376Z,3.17
2023-04-12T05:13:10.188Z,2.85
2023-04-12T05:16:12.612Z,3.00
2023-04-12T05:19:16.738Z,3.20
2023-04-12T05:22:22.698Z,2.72
2023-04-12T05:25:26.769Z,3.12
2023-04-12T05:28:30.017Z,3.10
2023-04-12T05:31:33.211Z,3.50
2023-04-12T05:34:37.158Z,2.53
2023-04-12T05:37:40.313Z,2.97
2023-04-12T05:40:46.574Z,2.85
2023-04-12T05:43:51.486Z,2.85
2023-04-12T05:46:55.110Z,2.80
2023-04-12T05:53:04.257Z,2.30
2023-04-12T05:56:07.767Z,2.60
2023-04-12T05:59:11.610Z,2.62
2023-04-12T06:02:15.192Z,2.60
2023-04-12T06:05:18.398Z,2.60
2023-04-12T06:08:21.231Z,2.35
2023-04-12T06:11:24.360Z,2.42
2023-04-12T06:14:29.183Z,2.75
2023-04-12T06:17:32.114Z,2.45
2023-04-12T06:20:34.450Z,2.40
2023-04-12T06:23:40.724Z,2.42
2023-04-12T06:26:47.138Z,2.50
2023-04-12T06:29:52.535Z,2.35
2023-04-12T06:32:57.478Z,2.33
2023-04-12T06:36:06.492Z,2.40
2023-04-12T06:39:12.317Z,2.50
2023-04-12T06:42:18.655Z,2.55
2023-04-12T06:45:22.436Z,2.20
2023-04-12T06:48:25.944Z,2.33
2023-04-12T06:51:31.389Z,1.90
2023-04-12T06:54:40.288Z,2.00
2023-04-12T06:57:46.384Z,2.10
2023-04-12T07:00:51.030Z,2.00
2023-04-12T07:03:56.096Z,2.53
2023-04-12T07:07:00.310Z,2.17
2023-04-12T07:10:04.806Z,2.55
2023-04-12T07:13:08.623Z,2.30
2023-04-12T07:16:14.484Z,2.30
2023-04-12T07:19:18.213Z,2.05
2023-04-12T07:22:21.679Z,2.47
2023-04-12T07:25:25.314Z,2.17
2023-04-12T07:28:28.315Z,2.20
2023-04-12T07:31:30.886Z,2.37
2023-04-12T07:34:33.225Z,2.15
2023-04-12T07:37:36.284Z,2.42
2023-04-12T07:40:38.812Z,2.72
2023-04-12T07:43:41.512Z,2.35
2023-04-12T07:46:44.079Z,2.30
2023-04-12T07:49:47.275Z,2.10
2023-04-12T07:52:49.730Z,2.25
2023-04-12T07:55:52.600Z,2.30
2023-04-12T07:58:55.298Z,2.65
2023-04-12T08:01:58.344Z,2.40
2023-04-12T08:05:01.160Z,2.45
2023-04-12T08:08:04.376Z,3.47
2023-04-12T08:11:07.003Z,3.20
2023-04-12T08:14:10.452Z,2.45
2023-04-12T08:17:12.922Z,2.45
2023-04-12T08:20:18.365Z,2.50
2023-04-12T08:23:21.266Z,2.67
2023-04-12T08:26:23.404Z,2.78
2023-04-12T08:29:25.893Z,2.22
2023-04-12T08:32:28.122Z,2.80
2023-04-12T08:35:30.638Z,2.60
2023-04-12T08:41:40.124Z,2.15
2023-04-12T08:44:42.556Z,2.20
2023-04-12T08:47:45.334Z,2.20
2023-04-12T08:50:48.978Z,2.60
2023-04-12T08:53:54.154Z,2.23
2023-04-12T08:56:59.958Z,2.45
2023-04-12T09:00:04.257Z,2.67
2023-04-12T09:03:10.627Z,2.00
2023-04-12T09:06:13.720Z,2.37
2023-04-12T09:09:16.194Z,2.35
2023-04-12T09:12:20.523Z,2.37
2023-04-12T09:15:22.818Z,2.47
2023-04-12T09:18:27.437Z,2.20
2023-04-12T09:21:31.488Z,2.40
2023-04-12T09:24:50.674Z,2.20
2023-04-12T09:27:54.183Z,2.62
2023-04-12T09:30:58.696Z,2.85
2023-04-12T09:34:09.001Z,2.60
2023-04-12T09:37:16.850Z,2.70
2023-04-12T09:40:25.085Z,2.55
2023-04-12T09:43:38.102Z,2.78
2023-04-12T09:46:51.999Z,2.87
2023-04-12T09:49:54.741Z,2.40
2023-04-12T09:52:58.458Z,2.37
2023-04-12T09:56:03.695Z,2.55
2023-04-12T09:59:07.477Z,2.35
2023-04-12T10:02:23.286Z,2.05
2023-04-12T10:05:27.138Z,2.55
2023-04-12T10:08:33.714Z,2.50
2023-04-12T10:11:37.491Z,2.47
2023-04-12T10:14:41.544Z,2.35
2023-04-12T10:17:52.584Z,2.95
2023-04-12T10:20:55.557Z,2.85
2023-04-12T10:23:58.511Z,2.45
2023-04-12T10:27:04.510Z,2.37
2023-04-12T10:30:20.224Z,2.28
2023-04-12T10:33:27.785Z,2.60
2023-04-12T10:36:53.494Z,2.45
2023-04-12T10:39:56.062Z,2.40
2023-04-12T10:43:23.724Z,2.15
2023-04-12T10:46:48.327Z,2.20
2023-04-12T10:50:39.631Z,1.92
2023-04-12T10:53:42.557Z,2.65
2023-04-12T10:56:48.513Z,2.75
2023-04-12T10:59:51.674Z,3.17
2023-04-12T11:03:09.641Z,2.60
2023-04-12T11:06:26.386Z,2.15
2023-04-12T11:09:33.699Z,2.75
2023-04-12T11:12:36.936Z,2.85
2023-04-12T11:15:40.346Z,2.55
2023-04-12T11:21:49.648Z,2.30
2023-04-12T11:24:54.444Z,2.10
2023-04-12T11:27:57.278Z,2.37
2023-04-12T11:31:01.221Z,2.50
2023-04-12T11:34:03.687Z,2.50
2023-04-12T11:37:10.416Z,2.55
2023-04-12T11:40:13.066Z,2.90
2023-04-12T11:43:23.879Z,2.50
2023-04-12T11:46:33.420Z,2.12
2023-04-12T11:49:36.819Z,2.50
2023-04-12T11:52:41.201Z,1.92
2023-04-12T11:55:55.103Z,2.53
2023-04-12T11:59:00.637Z,2.00
2023-04-12T12:02:13.780Z,2.08
2023-04-12T12:05:24.838Z,2.35
2023-04-12T12:08:27.694Z,3.22
2023-04-12T12:11:31.572Z,2.37
2023-04-12T12:14:37.820Z,2.42
2023-04-12T12:17:40.352Z,2.20
2023-04-12T12:20:50.478Z,1.75
2023-04-12T12:23:53.001Z,2.00
2023-04-12T12:26:55.172Z,1.77
2023-04-12T12:30:04.758Z,1.80
2023-04-12T12:33:07.515Z,1.90
2023-04-12T12:36:10.281Z,2.00
2023-04-12T12:39:12.916Z,2.03
2023-04-12T12:42:15.480Z,1.90
2023-04-12T12:45:20.727Z,1.75
2023-04-12T12:48:23.293Z,1.83
2023-04-12T12:51:27.080Z,1.70
2023-04-12T12:54:40.278Z,1.77
2023-04-12T12:57:47.918Z,1.65
2023-04-12T13:00:57.847Z,1.40
2023-04-12T13:04:00.301Z,2.30
2023-04-12T13:07:02.960Z,2.08
2023-04-12T13:10:06.070Z,1.80
2023-04-12T13:13:08.743Z,1.85
2023-04-12T13:16:11.482Z,1.90
2023-04-12T13:19:16.127Z,1.87
2023-04-12T13:22:18.373Z,1.75
2023-04-12T13:25:21.426Z,1.70
2023-04-12T13:28:23.657Z,1.17
2023-04-12T13:31:26.384Z,1.95
2023-04-12T13:34:28.599Z,1.75
2023-04-12T13:37:31.429Z,1.50
2023-04-12T13:40:33.864Z,1.27
2023-04-12T13:43:36.287Z,1.37
2023-04-12T13:46:38.504Z,1.62
2023-04-12T13:49:41.149Z,1.80
2023-04-12T13:52:43.382Z,1.50
2023-04-12T13:55:46.333Z,1.55
2023-04-12T13:58:48.547Z,1.35
2023-04-12T14:01:51.258Z,1.75
2023-04-12T14:04:55.562Z,1.50
2023-04-12T14:07:57.702Z,1.40
2023-04-12T14:11:00.262Z,1.60
2023-04-12T14:14:02.355Z,1.70
2023-04-12T14:17:04.801Z,1.73
2023-04-12T14:20:10.515Z,1.60
2023-04-12T14:23:12.920Z,1.70
2023-04-12T14:26:18.664Z,1.40
2023-04-12T14:29:21.224Z,1.70
2023-04-12T14:32:23.444Z,1.58
2023-04-12T14:35:26.146Z,1.70
2023-04-12T14:38:28.211Z,1.50
2023-04-12T14:41:31.590Z,1.40
2023-04-12T14:44:33.813Z,1.80
2023-04-12T14:47:36.479Z,1.70
2023-04-12T14:50:39.358Z,1.55
2023-04-12T14:53:43.198Z,1.75
2023-04-12T14:56:51.642Z,1.70
2023-04-12T14:59:56.809Z,1.70
2023-04-12T15:03:00.626Z,1.52
2023-04-12T15:06:03.456Z,2.00
2023-04-12T15:09:06.667Z,1.87
2023-04-12T15:12:09.345Z,2.12
2023-04-12T15:15:12.293Z,1.65
2023-04-12T15:18:15.407Z,2.10
2023-04-12T15:21:17.792Z,1.92
2023-04-12T15:24:24.305Z,1.95
2023-04-12T15:30:28.603Z,2.35
2023-04-12T15:33:34.246Z,1.87
2023-04-12T15:36:36.978Z,2.20
2023-04-12T15:39:40.157Z,2.08
2023-04-12T15:42:43.603Z,2.30
2023-04-12T15:45:45.779Z,2.03
2023-04-12T15:48:48.172Z,1.87
